sensor_id;sensor_type;location;lat;lon;timestamp;P1;durP1;ratioP1;P2;durP2;ratioP2
13834;SDS011;6988;52.614;13.500;2023-03-23T00:03:22;4.17;;;2.30;;
13834;SDS011;6988;52.614;13.500;2023-03-23T00:08:19;5.63;;;2.50;;
13834;SDS011;6988;52.614;13.500;2023-03-23T00:13:11;3.13;;;2.70;;
13834;SDS011;6988;52.614;13.500;2023-03-23T00:18:09;4.37;;;2.50;;
13834;SDS011;6988;52.614;13.500;2023-03-23T00:23:12;3.63;;;2.43;;
13834;SDS011;6988;52.614;13.500;2023-03-23T00:28:08;3.90;;;2.30;;
13834;SDS011;6988;52.614;13.500;2023-03-23T00:33:02;3.90;;;2.20;;
13834;SDS011;6988;52.614;13.500;2023-03-23T00:37:55;4.23;;;1.93;;
13834;SDS011;6988;52.614;13.500;2023-03-23T00:42:51;3.73;;;2.30;;
13834;SDS011;6988;52.614;13.500;2023-03-23T00:47:43;4.57;;;2.50;;
13834;SDS011;6988;52.614;13.500;2023-03-23T00:52:36;5.43;;;3.00;;
13834;SDS011;6988;52.614;13.500;2023-03-23T00:57:28;3.57;;;2.60;;
13834;SDS011;6988;52.614;13.500;2023-03-23T01:02:21;3.90;;;2.90;;
13834;SDS011;6988;52.614;13.500;2023-03-23T01:07:14;5.13;;;2.30;;
13834;SDS011;6988;52.614;13.500;2023-03-23T01:12:08;3.83;;;2.27;;
13834;SDS011;6988;52.614;13.500;2023-03-23T01:16:59;4.90;;;2.27;;
13834;SDS011;6988;52.614;13.500;2023-03-23T01:21:52;5.30;;;2.23;;
13834;SDS011;6988;52.614;13.500;2023-03-23T01:26:44;2.77;;;1.97;;
13834;SDS011;6988;52.614;13.500;2023-03-23T01:31:37;3.17;;;2.40;;
13834;SDS011;6988;52.614;13.500;2023-03-23T01:36:30;4.13;;;2.13;;
13834;SDS011;6988;52.614;13.500;2023-03-23T01:41:27;3.80;;;2.20;;
13834;SDS011;6988;52.614;13.500;2023-03-23T01:46:20;4.30;;;2.20;;
13834;SDS011;6988;52.614;13.500;2023-03-23T01:51:14;2.90;;;2.10;;
13834;SDS011;6988;52.614;13.500;2023-03-23T01:56:14;3.37;;;2.00;;
13834;SDS011;6988;52.614;13.500;2023-03-23T02:01:16;5.17;;;2.20;;
13834;SDS011;6988;52.614;13.500;2023-03-23T02:06:08;4.03;;;2.87;;
13834;SDS011;6988;52.614;13.500;2023-03-23T02:11:24;3.90;;;2.50;;
13834;SDS011;6988;52.614;13.500;2023-03-23T02:16:20;2.67;;;1.93;;
13834;SDS011;6988;52.614;13.500;2023-03-23T02:21:44;2.17;;;1.97;;
13834;SDS011;6988;52.614;13.500;2023-03-23T02:27:03;3.87;;;2.27;;
13834;SDS011;6988;52.614;13.500;2023-03-23T02:32:11;3.83;;;2.20;;
13834;SDS011;6988;52.614;13.500;2023-03-23T02:37:21;2.60;;;2.20;;
13834;SDS011;6988;52.614;13.500;2023-03-23T02:42:22;5.17;;;2.40;;
13834;SDS011;6988;52.614;13.500;2023-03-23T02:47:25;3.07;;;2.30;;
13834;SDS011;6988;52.614;13.500;2023-03-23T02:52:22;4.77;;;2.50;;
13834;SDS011;6988;52.614;13.500;2023-03-23T02:57:19;3.60;;;2.20;;
13834;SDS011;6988;52.614;13.500;2023-03-23T03:02:14;3.70;;;2.10;;
13834;SDS011;6988;52.614;13.500;2023-03-23T03:07:25;1.97;;;1.73;;
13834;SDS011;6988;52.614;13.500;2023-03-23T03:12:42;2.17;;;1.83;;
13834;SDS011;6988;52.614;13.500;2023-03-23T03:17:43;2.63;;;1.70;;
13834;SDS011;6988;52.614;13.500;2023-03-23T03:22:46;3.30;;;2.13;;
13834;SDS011;6988;52.614;13.500;2023-03-23T03:27:48;5.10;;;1.77;;
13834;SDS011;6988;52.614;13.500;2023-03-23T03:32:51;3.23;;;2.10;;
13834;SDS011;6988;52.614;13.500;2023-03-23T03:37:49;2.80;;;2.00;;
13834;SDS011;6988;52.614;13.500;2023-03-23T03:42:43;2.60;;;1.70;;
13834;SDS011;6988;52.614;13.500;2023-03-23T03:47:37;2.20;;;1.60;;
13834;SDS011;6988;52.614;13.500;2023-03-23T03:52:30;4.03;;;1.70;;
13834;SDS011;6988;52.614;13.500;2023-03-23T03:57:24;3.33;;;1.90;;
13834;SDS011;6988;52.614;13.500;2023-03-23T04:02:28;2.57;;;2.07;;
13834;SDS011;6988;52.614;13.500;2023-03-23T04:07:20;2.90;;;2.10;;
13834;SDS011;6988;52.614;13.500;2023-03-23T04:12:16;4.07;;;1.60;;
13834;SDS011;6988;52.614;13.500;2023-03-23T04:17:18;3.33;;;2.03;;
13834;SDS011;6988;52.614;13.500;2023-03-23T04:22:10;2.37;;;1.90;;
13834;SDS011;6988;52.614;13.500;2023-03-23T04:27:03;2.60;;;1.70;;
13834;SDS011;6988;52.614;13.500;2023-03-23T04:31:55;3.57;;;1.77;;
13834;SDS011;6988;52.614;13.500;2023-03-23T04:36:57;4.47;;;2.10;;
13834;SDS011;6988;52.614;13.500;2023-03-23T04:41:52;3.53;;;2.10;;
13834;SDS011;6988;52.614;13.500;2023-03-23T04:47:04;4.30;;;2.10;;
13834;SDS011;6988;52.614;13.500;2023-03-23T04:52:02;2.20;;;2.00;;
13834;SDS011;6988;52.614;13.500;2023-03-23T04:57:06;2.67;;;2.20;;
13834;SDS011;6988;52.614;13.500;2023-03-23T05:02:02;5.27;;;2.13;;
13834;SDS011;6988;52.614;13.500;2023-03-23T05:06:55;4.27;;;2.40;;
13834;SDS011;6988;52.614;13.500;2023-03-23T05:11:52;4.43;;;2.20;;
13834;SDS011;6988;52.614;13.500;2023-03-23T05:16:44;3.83;;;2.20;;
13834;SDS011;6988;52.614;13.500;2023-03-23T05:21:39;3.80;;;2.00;;
13834;SDS011;6988;52.614;13.500;2023-03-23T05:26:32;3.80;;;2.60;;
13834;SDS011;6988;52.614;13.500;2023-03-23T05:31:32;3.60;;;2.83;;
13834;SDS011;6988;52.614;13.500;2023-03-23T05:36:24;4.40;;;2.90;;
13834;SDS011;6988;52.614;13.500;2023-03-23T05:41:35;3.50;;;2.80;;
13834;SDS011;6988;52.614;13.500;2023-03-23T05:46:27;3.97;;;2.83;;
13834;SDS011;6988;52.614;13.500;2023-03-23T05:51:24;6.93;;;3.30;;
13834;SDS011;6988;52.614;13.500;2023-03-23T05:56:16;4.30;;;3.30;;
13834;SDS011;6988;52.614;13.500;2023-03-23T06:01:21;4.87;;;3.00;;
13834;SDS011;6988;52.614;13.500;2023-03-23T06:06:14;3.30;;;2.80;;
13834;SDS011;6988;52.614;13.500;2023-03-23T06:11:24;6.23;;;2.90;;
13834;SDS011;6988;52.614;13.500;2023-03-23T06:16:36;5.73;;;2.73;;
13834;SDS011;6988;52.614;13.500;2023-03-23T06:21:32;6.13;;;2.60;;
13834;SDS011;6988;52.614;13.500;2023-03-23T06:26:34;7.00;;;2.93;;
13834;SDS011;6988;52.614;13.500;2023-03-23T06:31:32;6.03;;;3.00;;
13834;SDS011;6988;52.614;13.500;2023-03-23T06:36:26;6.37;;;3.00;;
13834;SDS011;6988;52.614;13.500;2023-03-23T06:41:35;6.00;;;3.20;;
13834;SDS011;6988;52.614;13.500;2023-03-23T06:46:27;5.87;;;2.77;;
13834;SDS011;6988;52.614;13.500;2023-03-23T06:51:19;3.73;;;2.10;;
13834;SDS011;6988;52.614;13.500;2023-03-23T06:56:15;5.77;;;2.67;;
13834;SDS011;6988;52.614;13.500;2023-03-23T07:01:09;4.50;;;2.23;;
13834;SDS011;6988;52.614;13.500;2023-03-23T07:06:10;4.17;;;2.37;;
13834;SDS011;6988;52.614;13.500;2023-03-23T07:11:11;3.77;;;2.50;;
13834;SDS011;6988;52.614;13.500;2023-03-23T07:16:04;3.33;;;2.03;;
13834;SDS011;6988;52.614;13.500;2023-03-23T07:21:00;3.60;;;2.43;;
13834;SDS011;6988;52.614;13.500;2023-03-23T07:25:55;4.00;;;2.10;;
13834;SDS011;6988;52.614;13.500;2023-03-23T07:30:54;3.77;;;2.00;;
13834;SDS011;6988;52.614;13.500;2023-03-23T07:35:46;4.23;;;2.37;;
13834;SDS011;6988;52.614;13.500;2023-03-23T07:40:42;2.87;;;1.90;;
13834;SDS011;6988;52.614;13.500;2023-03-23T07:45:39;5.50;;;2.30;;
13834;SDS011;6988;52.614;13.500;2023-03-23T07:50:31;3.40;;;1.67;;
13834;SDS011;6988;52.614;13.500;2023-03-23T07:55:26;4.40;;;2.00;;
13834;SDS011;6988;52.614;13.500;2023-03-23T08:00:41;4.07;;;2.20;;
13834;SDS011;6988;52.614;13.500;2023-03-23T08:05:33;3.37;;;2.30;;
13834;SDS011;6988;52.614;13.500;2023-03-23T08:10:37;3.50;;;2.43;;
13834;SDS011;6988;52.614;13.500;2023-03-23T08:16:03;2.83;;;2.20;;
13834;SDS011;6988;52.614;13.500;2023-03-23T08:21:15;4.50;;;2.37;;
13834;SDS011;6988;52.614;13.500;2023-03-23T08:26:21;2.80;;;2.30;;
13834;SDS011;6988;52.614;13.500;2023-03-23T08:31:33;3.20;;;2.30;;
13834;SDS011;6988;52.614;13.500;2023-03-23T08:36:36;4.13;;;2.23;;
13834;SDS011;6988;52.614;13.500;2023-03-23T08:41:43;4.40;;;2.50;;
13834;SDS011;6988;52.614;13.500;2023-03-23T08:46:44;4.27;;;2.17;;
13834;SDS011;6988;52.614;13.500;2023-03-23T08:52:02;3.37;;;2.17;;
13834;SDS011;6988;52.614;13.500;2023-03-23T08:57:12;2.40;;;1.90;;
13834;SDS011;6988;52.614;13.500;2023-03-23T09:02:31;2.87;;;1.97;;
13834;SDS011;6988;52.614;13.500;2023-03-23T09:07:45;3.13;;;2.10;;
13834;SDS011;6988;52.614;13.500;2023-03-23T09:12:40;4.27;;;2.10;;
13834;SDS011;6988;52.614;13.500;2023-03-23T09:17:34;4.43;;;2.30;;
13834;SDS011;6988;52.614;13.500;2023-03-23T09:22:27;4.60;;;2.10;;
13834;SDS011;6988;52.614;13.500;2023-03-23T09:27:19;3.63;;;2.17;;
13834;SDS011;6988;52.614;13.500;2023-03-23T09:32:10;2.63;;;1.83;;
13834;SDS011;6988;52.614;13.500;2023-03-23T09:37:04;4.37;;;2.03;;
13834;SDS011;6988;52.614;13.500;2023-03-23T09:42:03;5.47;;;1.80;;
13834;SDS011;6988;52.614;13.500;2023-03-23T09:47:14;3.03;;;1.80;;
13834;SDS011;6988;52.614;13.500;2023-03-23T09:52:16;3.13;;;1.67;;
13834;SDS011;6988;52.614;13.500;2023-03-23T09:57:11;2.77;;;1.87;;
13834;SDS011;6988;52.614;13.500;2023-03-23T10:02:12;3.23;;;1.57;;
13834;SDS011;6988;52.614;13.500;2023-03-23T10:07:09;2.20;;;1.67;;
13834;SDS011;6988;52.614;13.500;2023-03-23T10:12:07;3.20;;;1.90;;
13834;SDS011;6988;52.614;13.500;2023-03-23T10:17:13;3.63;;;1.60;;
13834;SDS011;6988;52.614;13.500;2023-03-23T10:22:18;3.23;;;1.90;;
13834;SDS011;6988;52.614;13.500;2023-03-23T10:27:22;3.93;;;1.70;;
13834;SDS011;6988;52.614;13.500;2023-03-23T10:32:23;2.80;;;1.30;;
13834;SDS011;6988;52.614;13.500;2023-03-23T10:37:31;2.47;;;1.40;;
13834;SDS011;6988;52.614;13.500;2023-03-23T10:42:31;1.77;;;1.40;;
13834;SDS011;6988;52.614;13.500;2023-03-23T10:47:27;3.00;;;1.20;;
13834;SDS011;6988;52.614;13.500;2023-03-23T10:52:27;2.07;;;1.30;;
13834;SDS011;6988;52.614;13.500;2023-03-23T10:57:25;3.27;;;1.47;;
13834;SDS011;6988;52.614;13.500;2023-03-23T11:02:21;1.67;;;1.20;;
13834;SDS011;6988;52.614;13.500;2023-03-23T11:07:18;1.73;;;1.30;;
13834;SDS011;6988;52.614;13.500;2023-03-23T11:12:18;3.53;;;1.43;;
13834;SDS011;6988;52.614;13.500;2023-03-23T11:17:19;4.00;;;1.40;;
13834;SDS011;6988;52.614;13.500;2023-03-23T11:22:17;1.70;;;1.20;;
13834;SDS011;6988;52.614;13.500;2023-03-23T11:27:16;2.60;;;1.40;;
13834;SDS011;6988;52.614;13.500;2023-03-23T11:32:09;2.80;;;1.50;;
13834;SDS011;6988;52.614;13.500;2023-03-23T11:37:07;1.90;;;1.40;;
13834;SDS011;6988;52.614;13.500;2023-03-23T11:42:11;2.90;;;1.40;;
13834;SDS011;6988;52.614;13.500;2023-03-23T11:47:13;2.83;;;1.57;;
13834;SDS011;6988;52.614;13.500;2023-03-23T11:52:19;3.43;;;1.33;;
13834;SDS011;6988;52.614;13.500;2023-03-23T11:57:17;2.07;;;1.10;;
13834;SDS011;6988;52.614;13.500;2023-03-23T12:02:32;2.20;;;1.40;;
13834;SDS011;6988;52.614;13.500;2023-03-23T12:07:56;3.97;;;1.40;;
13834;SDS011;6988;52.614;13.500;2023-03-23T12:13:11;3.13;;;1.50;;
13834;SDS011;6988;52.614;13.500;2023-03-23T12:18:18;2.67;;;1.27;;
13834;SDS011;6988;52.614;13.500;2023-03-23T12:23:32;3.33;;;1.40;;
13834;SDS011;6988;52.614;13.500;2023-03-23T12:28:47;4.43;;;1.80;;
13834;SDS011;6988;52.614;13.500;2023-03-23T12:34:04;2.33;;;1.57;;
13834;SDS011;6988;52.614;13.500;2023-03-23T12:44:34;2.23;;;1.37;;
13834;SDS011;6988;52.614;13.500;2023-03-23T12:49:34;2.03;;;1.30;;
13834;SDS011;6988;52.614;13.500;2023-03-23T12:54:31;1.70;;;1.30;;
13834;SDS011;6988;52.614;13.500;2023-03-23T12:59:30;5.00;;;1.50;;
13834;SDS011;6988;52.614;13.500;2023-03-23T13:04:32;2.40;;;1.40;;
13834;SDS011;6988;52.614;13.500;2023-03-23T13:09:32;3.23;;;1.40;;
13834;SDS011;6988;52.614;13.500;2023-03-23T13:14:43;2.07;;;1.37;;
13834;SDS011;6988;52.614;13.500;2023-03-23T13:19:56;4.33;;;1.93;;
13834;SDS011;6988;52.614;13.500;2023-03-23T13:25:13;2.00;;;1.03;;
13834;SDS011;6988;52.614;13.500;2023-03-23T13:30:19;3.07;;;1.40;;
13834;SDS011;6988;52.614;13.500;2023-03-23T13:35:16;3.27;;;1.33;;
13834;SDS011;6988;52.614;13.500;2023-03-23T13:40:15;1.60;;;1.17;;
13834;SDS011;6988;52.614;13.500;2023-03-23T13:45:22;2.60;;;1.33;;
13834;SDS011;6988;52.614;13.500;2023-03-23T13:50:28;2.00;;;1.47;;
13834;SDS011;6988;52.614;13.500;2023-03-23T13:55:30;2.77;;;1.20;;
13834;SDS011;6988;52.614;13.500;2023-03-23T14:00:36;3.00;;;1.30;;
13834;SDS011;6988;52.614;13.500;2023-03-23T14:05:38;3.23;;;1.30;;
13834;SDS011;6988;52.614;13.500;2023-03-23T14:10:36;3.87;;;1.23;;
13834;SDS011;6988;52.614;13.500;2023-03-23T14:15:42;3.30;;;1.40;;
13834;SDS011;6988;52.614;13.500;2023-03-23T14:20:46;3.47;;;1.40;;
13834;SDS011;6988;52.614;13.500;2023-03-23T14:25:38;4.40;;;1.53;;
13834;SDS011;6988;52.614;13.500;2023-03-23T14:30:34;3.63;;;1.30;;
13834;SDS011;6988;52.614;13.500;2023-03-23T14:35:29;4.30;;;1.37;;
13834;SDS011;6988;52.614;13.500;2023-03-23T14:40:25;2.90;;;1.30;;
13834;SDS011;6988;52.614;13.500;2023-03-23T14:45:20;2.90;;;1.00;;
13834;SDS011;6988;52.614;13.500;2023-03-23T14:50:26;1.53;;;1.20;;
13834;SDS011;6988;52.614;13.500;2023-03-23T14:55:23;4.00;;;1.07;;
13834;SDS011;6988;52.614;13.500;2023-03-23T15:00:19;3.47;;;1.30;;
13834;SDS011;6988;52.614;13.500;2023-03-23T15:05:14;3.57;;;1.37;;
13834;SDS011;6988;52.614;13.500;2023-03-23T15:10:14;3.43;;;1.37;;
13834;SDS011;6988;52.614;13.500;2023-03-23T15:15:16;3.33;;;1.20;;
13834;SDS011;6988;52.614;13.500;2023-03-23T15:20:21;1.93;;;1.17;;
13834;SDS011;6988;52.614;13.500;2023-03-23T15:25:19;4.80;;;1.40;;
13834;SDS011;6988;52.614;13.500;2023-03-23T15:30:15;4.33;;;1.50;;
13834;SDS011;6988;52.614;13.500;2023-03-23T15:35:23;4.07;;;1.40;;
13834;SDS011;6988;52.614;13.500;2023-03-23T15:40:17;2.63;;;1.37;;
13834;SDS011;6988;52.614;13.500;2023-03-23T15:45:20;4.90;;;1.63;;
13834;SDS011;6988;52.614;13.500;2023-03-23T15:50:18;3.23;;;1.20;;
13834;SDS011;6988;52.614;13.500;2023-03-23T15:55:26;4.43;;;1.50;;
13834;SDS011;6988;52.614;13.500;2023-03-23T16:00:21;2.33;;;1.10;;
13834;SDS011;6988;52.614;13.500;2023-03-23T16:05:16;4.57;;;1.20;;
13834;SDS011;6988;52.614;13.500;2023-03-23T16:10:10;4.13;;;1.13;;
13834;SDS011;6988;52.614;13.500;2023-03-23T16:15:09;2.90;;;1.40;;
13834;SDS011;6988;52.614;13.500;2023-03-23T16:20:01;2.80;;;1.20;;
13834;SDS011;6988;52.614;13.500;2023-03-23T16:25:01;3.13;;;1.50;;
13834;SDS011;6988;52.614;13.500;2023-03-23T16:29:54;4.40;;;1.57;;
13834;SDS011;6988;52.614;13.500;2023-03-23T16:34:48;2.83;;;1.40;;
13834;SDS011;6988;52.614;13.500;2023-03-23T16:39:40;3.97;;;1.57;;
13834;SDS011;6988;52.614;13.500;2023-03-23T16:44:32;3.33;;;1.17;;
13834;SDS011;6988;52.614;13.500;2023-03-23T16:49:24;2.57;;;1.13;;
13834;SDS011;6988;52.614;13.500;2023-03-23T16:54:17;1.83;;;1.10;;
13834;SDS011;6988;52.614;13.500;2023-03-23T16:59:09;6.40;;;1.40;;
13834;SDS011;6988;52.614;13.500;2023-03-23T17:04:01;3.37;;;1.20;;
13834;SDS011;6988;52.614;13.500;2023-03-23T17:08:52;3.20;;;1.20;;
13834;SDS011;6988;52.614;13.500;2023-03-23T17:13:48;2.10;;;1.07;;
13834;SDS011;6988;52.614;13.500;2023-03-23T17:18:39;3.00;;;1.30;;
13834;SDS011;6988;52.614;13.500;2023-03-23T17:23:31;3.47;;;1.23;;
13834;SDS011;6988;52.614;13.500;2023-03-23T17:28:23;5.33;;;1.30;;
13834;SDS011;6988;52.614;13.500;2023-03-23T17:33:17;2.33;;;1.20;;
13834;SDS011;6988;52.614;13.500;2023-03-23T17:38:09;3.57;;;1.50;;
13834;SDS011;6988;52.614;13.500;2023-03-23T17:43:01;3.30;;;1.27;;
13834;SDS011;6988;52.614;13.500;2023-03-23T17:47:53;2.33;;;1.67;;
13834;SDS011;6988;52.614;13.500;2023-03-23T17:52:48;3.67;;;1.63;;
13834;SDS011;6988;52.614;13.500;2023-03-23T17:57:40;3.17;;;1.43;;
13834;SDS011;6988;52.614;13.500;2023-03-23T18:02:33;3.77;;;1.60;;
13834;SDS011;6988;52.614;13.500;2023-03-23T18:07:25;3.93;;;1.60;;
13834;SDS011;6988;52.614;13.500;2023-03-23T18:12:19;3.80;;;1.70;;
13834;SDS011;6988;52.614;13.500;2023-03-23T18:17:11;2.13;;;1.30;;
13834;SDS011;6988;52.614;13.500;2023-03-23T18:22:05;3.87;;;1.63;;
13834;SDS011;6988;52.614;13.500;2023-03-23T18:26:57;2.33;;;1.43;;
13834;SDS011;6988;52.614;13.500;2023-03-23T18:31:50;4.40;;;1.80;;
13834;SDS011;6988;52.614;13.500;2023-03-23T18:36:42;4.47;;;1.40;;
13834;SDS011;6988;52.614;13.500;2023-03-23T18:41:34;4.53;;;1.90;;
13834;SDS011;6988;52.614;13.500;2023-03-23T18:46:26;3.00;;;1.60;;
13834;SDS011;6988;52.614;13.500;2023-03-23T18:51:19;3.50;;;2.30;;
13834;SDS011;6988;52.614;13.500;2023-03-23T18:56:12;7.93;;;2.87;;
13834;SDS011;6988;52.614;13.500;2023-03-23T19:01:08;5.30;;;2.30;;
13834;SDS011;6988;52.614;13.500;2023-03-23T19:06:02;4.13;;;2.40;;
13834;SDS011;6988;52.614;13.500;2023-03-23T19:10:57;4.90;;;2.47;;
13834;SDS011;6988;52.614;13.500;2023-03-23T19:15:51;4.63;;;2.07;;
13834;SDS011;6988;52.614;13.500;2023-03-23T19:20:43;5.73;;;2.80;;
13834;SDS011;6988;52.614;13.500;2023-03-23T19:25:37;5.47;;;2.70;;
13834;SDS011;6988;52.614;13.500;2023-03-23T19:30:30;5.60;;;2.87;;
13834;SDS011;6988;52.614;13.500;2023-03-23T19:42:55;6.47;;;2.53;;
13834;SDS011;6988;52.614;13.500;2023-03-23T19:47:49;6.30;;;2.80;;
13834;SDS011;6988;52.614;13.500;2023-03-23T19:52:40;5.07;;;2.43;;
13834;SDS011;6988;52.614;13.500;2023-03-23T19:57:32;4.30;;;2.30;;
13834;SDS011;6988;52.614;13.500;2023-03-23T20:02:24;4.67;;;2.67;;
13834;SDS011;6988;52.614;13.500;2023-03-23T20:07:17;4.27;;;2.40;;
13834;SDS011;6988;52.614;13.500;2023-03-23T20:12:09;5.40;;;2.50;;
13834;SDS011;6988;52.614;13.500;2023-03-23T20:17:01;4.77;;;2.20;;
13834;SDS011;6988;52.614;13.500;2023-03-23T20:21:53;4.93;;;2.37;;
13834;SDS011;6988;52.614;13.500;2023-03-23T20:26:46;4.83;;;2.30;;
13834;SDS011;6988;52.614;13.500;2023-03-23T20:31:39;5.63;;;2.77;;
13834;SDS011;6988;52.614;13.500;2023-03-23T20:36:33;7.00;;;3.10;;
13834;SDS011;6988;52.614;13.500;2023-03-23T20:41:29;5.20;;;2.47;;
13834;SDS011;6988;52.614;13.500;2023-03-23T20:46:23;3.47;;;2.10;;
13834;SDS011;6988;52.614;13.500;2023-03-23T20:51:15;4.53;;;2.50;;
13834;SDS011;6988;52.614;13.500;2023-03-23T20:56:07;5.30;;;2.53;;
13834;SDS011;6988;52.614;13.500;2023-03-23T21:01:00;3.77;;;2.30;;
13834;SDS011;6988;52.614;13.500;2023-03-23T21:05:56;6.63;;;2.90;;
13834;SDS011;6988;52.614;13.500;2023-03-23T21:10:49;7.10;;;3.70;;
13834;SDS011;6988;52.614;13.500;2023-03-23T21:15:41;6.73;;;3.70;;
13834;SDS011;6988;52.614;13.500;2023-03-23T21:20:34;6.03;;;3.37;;
13834;SDS011;6988;52.614;13.500;2023-03-23T21:25:28;8.57;;;3.60;;
13834;SDS011;6988;52.614;13.500;2023-03-23T21:30:20;9.17;;;3.93;;
13834;SDS011;6988;52.614;13.500;2023-03-23T21:35:12;5.17;;;3.37;;
13834;SDS011;6988;52.614;13.500;2023-03-23T21:40:05;6.20;;;2.97;;
13834;SDS011;6988;52.614;13.500;2023-03-23T21:45:04;5.73;;;3.30;;
13834;SDS011;6988;52.614;13.500;2023-03-23T21:49:56;7.03;;;3.43;;
13834;SDS011;6988;52.614;13.500;2023-03-23T21:54:48;6.13;;;3.10;;
13834;SDS011;6988;52.614;13.500;2023-03-23T21:59:40;5.47;;;3.63;;
13834;SDS011;6988;52.614;13.500;2023-03-23T22:04:33;6.93;;;3.77;;
13834;SDS011;6988;52.614;13.500;2023-03-23T22:09:25;6.73;;;4.57;;
13834;SDS011;6988;52.614;13.500;2023-03-23T22:14:17;9.33;;;5.27;;
13834;SDS011;6988;52.614;13.500;2023-03-23T22:19:08;9.70;;;5.73;;
13834;SDS011;6988;52.614;13.500;2023-03-23T22:24:02;8.37;;;5.80;;
13834;SDS011;6988;52.614;13.500;2023-03-23T22:28:54;8.87;;;5.93;;
13834;SDS011;6988;52.614;13.500;2023-03-23T22:33:48;9.90;;;5.50;;
13834;SDS011;6988;52.614;13.500;2023-03-23T22:38:43;8.73;;;5.80;;
13834;SDS011;6988;52.614;13.500;2023-03-23T22:43:38;9.50;;;5.93;;
13834;SDS011;6988;52.614;13.500;2023-03-23T23:04:38;8.30;;;5.60;;
13834;SDS011;6988;52.614;13.500;2023-03-23T23:09:31;11.23;;;5.67;;
13834;SDS011;6988;52.614;13.500;2023-03-23T23:14:23;9.17;;;5.20;;
13834;SDS011;6988;52.614;13.500;2023-03-23T23:19:16;7.97;;;5.47;;
13834;SDS011;6988;52.614;13.500;2023-03-23T23:24:09;8.40;;;5.50;;
13834;SDS011;6988;52.614;13.500;2023-03-23T23:29:01;8.77;;;5.33;;
13834;SDS011;6988;52.614;13.500;2023-03-23T23:33:54;8.70;;;5.23;;
13834;SDS011;6988;52.614;13.500;2023-03-23T23:38:48;8.83;;;5.80;;
13834;SDS011;6988;52.614;13.500;2023-03-23T23:43:41;6.70;;;4.70;;
13834;SDS011;6988;52.614;13.500;2023-03-23T23:48:33;7.17;;;4.80;;
13834;SDS011;6988;52.614;13.500;2023-03-23T23:53:26;8.33;;;4.40;;
13834;SDS011;6988;52.614;13.500;2023-03-23T23:58:18;8.20;;;4.83;;
